sensor_id;sensor_type;location;lat;lon;timestamp;pressure;altitude;pressure_sealevel;temperature;humidity
66880;BME280;72009;51.392;10.234;2023-08-20T00:00:10;98553.41;;;20.09;100.00
66880;BME280;72009;51.392;10.234;2023-08-20T00:00:31;98545.03;;;20.09;100.00
66880;BME280;72009;51.392;10.234;2023-08-20T00:00:52;98552.59;;;20.08;100.00
66880;BME280;72009;51.392;10.234;2023-08-20T00:01:15;98544.22;;;20.08;100.00
66880;BME280;72009;51.392;10.234;2023-08-20T00:01:40;98553.41;;;20.09;100.00
66880;BME280;72009;51.392;10.234;2023-08-20T00:02:01;98546.19;;;20.08;100.00
66880;BME280;72009;51.392;10.234;2023-08-20T00:02:23;98553.78;;;20.07;100.00
66880;BME280;72009;51.392;10.234;2023-08-20T00:02:46;98550.97;;;20.07;100.00
66880;BME280;72009;51.392;10.234;2023-08-20T00:03:12;98548.19;;;20.07;100.00
66880;BME280;72009;51.392;10.234;2023-08-20T00:03:33;98547.03;;;20.08;100.00
66880;BME280;72009;51.392;10.234;2023-08-20T00:03:54;98553.78;;;20.07;100.00
66880;BME280;72009;51.392;10.234;2023-08-20T00:04:15;98544.56;;;20.06;100.00
66880;BME280;72009;51.392;10.234;2023-08-20T00:04:36;98546.56;;;20.06;100.00
66880;BME280;72009;51.392;10.234;2023-08-20T00:04:57;98545.75;;;20.05;100.00
66880;BME280;72009;51.392;10.234;2023-08-20T00:05:18;98547.34;;;20.06;100.00
66880;BME280;72009;51.392;10.234;2023-08-20T00:05:39;98546.56;;;20.06;100.00
66880;BME280;72009;51.392;10.234;2023-08-20T00:06:00;98543.78;;;20.06;100.00
66880;BME280;72009;51.392;10.234;2023-08-20T00:06:21;98546.19;;;20.08;100.00
66880;BME280;72009;51.392;10.234;2023-08-20T00:06:42;98547.34;;;20.06;100.00
66880;BME280;72009;51.392;10.234;2023-08-20T00:07:03;98548.19;;;20.07;100.00
66880;BME280;72009;51.392;10.234;2023-08-20T00:07:23;98548.19;;;20.07;100.00
66880;BME280;72009;51.392;10.234;2023-08-20T00:07:44;98548.19;;;20.07;100.00
66880;BME280;72009;51.392;10.234;2023-08-20T00:08:04;98543.41;;;20.08;100.00
66880;BME280;72009;51.392;10.234;2023-08-20T00:08:25;98541.78;;;20.06;100.00
66880;BME280;72009;51.392;10.234;2023-08-20T00:08:45;98548.19;;;20.07;100.00
66880;BME280;72009;51.392;10.234;2023-08-20T00:09:05;98537.03;;;20.07;100.00
66880;BME280;72009;51.392;10.234;2023-08-20T00:09:26;98536.19;;;20.06;100.00
66880;BME280;72009;51.392;10.234;2023-08-20T00:09:46;98540.97;;;20.06;100.00
66880;BME280;72009;51.392;10.234;2023-08-20T00:10:07;98540.19;;;20.05;100.00
66880;BME280;72009;51.392;10.234;2023-08-20T00:10:27;98539.81;;;20.07;100.00
66880;BME280;72009;51.392;10.234;2023-08-20T00:10:47;98538.97;;;20.06;100.00
66880;BME280;72009;51.392;10.234;2023-08-20T00:11:08;98543.41;;;20.08;100.00
66880;BME280;72009;51.392;10.234;2023-08-20T00:11:28;98545.41;;;20.07;100.00
66880;BME280;72009;51.392;10.234;2023-08-20T00:11:48;98543.41;;;20.08;100.00
66880;BME280;72009;51.392;10.234;2023-08-20T00:12:09;98542.25;;;20.09;100.00
66880;BME280;72009;51.392;10.234;2023-08-20T00:12:30;98547.03;;;20.08;100.00
66880;BME280;72009;51.392;10.234;2023-08-20T00:12:50;98538.28;;;20.10;100.00
66880;BME280;72009;51.392;10.234;2023-08-20T00:13:10;98549.44;;;20.10;100.00
66880;BME280;72009;51.392;10.234;2023-08-20T00:13:31;98537.91;;;20.11;100.00
66880;BME280;72009;51.392;10.234;2023-08-20T00:13:51;98554.69;;;20.11;100.00
66880;BME280;72009;51.392;10.234;2023-08-20T00:14:15;98546.28;;;20.11;100.00
66880;BME280;72009;51.392;10.234;2023-08-20T00:14:55;98543.88;;;20.10;100.00
66880;BME280;72009;51.392;10.234;2023-08-20T00:15:16;98544.66;;;20.10;100.00
66880;BME280;72009;51.392;10.234;2023-08-20T00:15:36;98545.84;;;20.09;100.00
66880;BME280;72009;51.392;10.234;2023-08-20T00:15:57;98543.41;;;20.08;100.00
66880;BME280;72009;51.392;10.234;2023-08-20T00:16:17;98544.22;;;20.08;100.00
66880;BME280;72009;51.392;10.234;2023-08-20T00:16:38;98547.03;;;20.08;100.00
66880;BME280;72009;51.392;10.234;2023-08-20T00:16:58;98549.34;;;20.06;100.00
66880;BME280;72009;51.392;10.234;2023-08-20T00:17:19;98546.56;;;20.06;100.00
66880;BME280;72009;51.392;10.234;2023-08-20T00:17:40;98546.56;;;20.06;100.00
66880;BME280;72009;51.392;10.234;2023-08-20T00:18:01;98547.72;;;20.05;100.00
66880;BME280;72009;51.392;10.234;2023-08-20T00:18:22;98549.72;;;20.04;100.00
66880;BME280;72009;51.392;10.234;2023-08-20T00:18:42;98544.94;;;20.05;100.00
66880;BME280;72009;51.392;10.234;2023-08-20T00:19:03;98550.50;;;20.05;100.00
66880;BME280;72009;51.392;10.234;2023-08-20T00:19:24;98546.13;;;20.04;100.00
66880;BME280;72009;51.392;10.234;2023-08-20T00:19:44;98546.91;;;20.04;100.00
66880;BME280;72009;51.392;10.234;2023-08-20T00:20:07;98552.50;;;20.04;100.00
66880;BME280;72009;51.392;10.234;2023-08-20T00:20:28;98553.66;;;20.03;100.00
66880;BME280;72009;51.392;10.234;2023-08-20T00:20:48;98554.50;;;20.04;100.00
66880;BME280;72009;51.392;10.234;2023-08-20T00:21:09;98550.50;;;20.05;100.00
66880;BME280;72009;51.392;10.234;2023-08-20T00:21:30;98551.72;;;20.04;100.00
66880;BME280;72009;51.392;10.234;2023-08-20T00:21:50;98552.88;;;20.03;100.00
66880;BME280;72009;51.392;10.234;2023-08-20T00:22:11;98553.66;;;20.03;100.00
66880;BME280;72009;51.392;10.234;2023-08-20T00:22:31;98551.25;;;20.02;100.00
66880;BME280;72009;51.392;10.234;2023-08-20T00:22:52;98547.28;;;20.03;100.00
66880;BME280;72009;51.392;10.234;2023-08-20T00:23:12;98559.63;;;20.02;100.00
66880;BME280;72009;51.392;10.234;2023-08-20T00:23:33;98552.44;;;20.01;100.00
66880;BME280;72009;51.392;10.234;2023-08-20T00:23:54;98556.38;;;20.00;100.00
66880;BME280;72009;51.392;10.234;2023-08-20T00:24:15;98556.75;;;19.98;100.00
66880;BME280;72009;51.392;10.234;2023-08-20T00:24:35;98553.16;;;19.98;100.00
66880;BME280;72009;51.392;10.234;2023-08-20T00:24:56;98550.72;;;19.96;100.00
66880;BME280;72009;51.392;10.234;2023-08-20T00:25:17;98554.69;;;19.95;100.00
66880;BME280;72009;51.392;10.234;2023-08-20T00:25:38;98555.84;;;19.94;100.00
66880;BME280;72009;51.392;10.234;2023-08-20T00:25:59;98552.25;;;19.94;100.00
66880;BME280;72009;51.392;10.234;2023-08-20T00:26:19;98547.84;;;19.93;100.00
66880;BME280;72009;51.392;10.234;2023-08-20T00:26:40;98547.03;;;19.92;100.00
66880;BME280;72009;51.392;10.234;2023-08-20T00:27:00;98556.22;;;19.93;100.00
66880;BME280;72009;51.392;10.234;2023-08-20T00:27:21;98552.63;;;19.92;100.00
66880;BME280;72009;51.392;10.234;2023-08-20T00:27:42;98558.19;;;19.92;100.00
66880;BME280;72009;51.392;10.234;2023-08-20T00:28:03;98555.41;;;19.92;100.00
66880;BME280;72009;51.392;10.234;2023-08-20T00:28:23;98553.78;;;19.91;100.00
66880;BME280;72009;51.392;10.234;2023-08-20T00:28:43;98554.59;;;19.92;100.00
66880;BME280;72009;51.392;10.234;2023-08-20T00:29:04;98554.59;;;19.92;100.00
66880;BME280;72009;51.392;10.234;2023-08-20T00:29:24;98551.78;;;19.92;100.00
66880;BME280;72009;51.392;10.234;2023-08-20T00:29:44;98554.59;;;19.92;100.00
66880;BME280;72009;51.392;10.234;2023-08-20T00:30:05;98555.41;;;19.92;100.00
66880;BME280;72009;51.392;10.234;2023-08-20T00:30:26;98553.41;;;19.93;100.00
66880;BME280;72009;51.392;10.234;2023-08-20T00:30:46;98563.78;;;19.92;100.00
66880;BME280;72009;51.392;10.234;2023-08-20T00:31:06;98557.00;;;19.93;100.00
66880;BME280;72009;51.392;10.234;2023-08-20T00:31:27;98559.00;;;19.93;100.00
66880;BME280;72009;51.392;10.234;2023-08-20T00:31:47;98555.84;;;19.94;100.00
66880;BME280;72009;51.392;10.234;2023-08-20T00:32:07;98547.03;;;19.92;100.00
66880;BME280;72009;51.392;10.234;2023-08-20T00:32:27;98556.22;;;19.93;100.00
66880;BME280;72009;51.392;10.234;2023-08-20T00:32:48;98561.44;;;19.94;100.00
66880;BME280;72009;51.392;10.234;2023-08-20T00:33:08;98560.63;;;19.94;100.00
66880;BME280;72009;51.392;10.234;2023-08-20T00:33:28;98560.63;;;19.94;100.00
66880;BME280;72009;51.392;10.234;2023-08-20T00:33:48;98559.00;;;19.93;100.00
66880;BME280;72009;51.392;10.234;2023-08-20T00:34:09;98552.25;;;19.94;100.00
66880;BME280;72009;51.392;10.234;2023-08-20T00:34:29;98567.00;;;19.94;100.00
66880;BME280;72009;51.392;10.234;2023-08-20T00:34:49;98561.44;;;19.94;100.00
66880;BME280;72009;51.392;10.234;2023-08-20T00:35:10;98558.63;;;19.94;100.00
66880;BME280;72009;51.392;10.234;2023-08-20T00:35:30;98563.44;;;19.94;100.00
66880;BME280;72009;51.392;10.234;2023-08-20T00:35:51;98558.63;;;19.94;100.00
66880;BME280;72009;51.392;10.234;2023-08-20T00:36:11;98556.22;;;19.93;100.00
66880;BME280;72009;51.392;10.234;2023-08-20T00:36:31;98557.00;;;19.93;100.00
66880;BME280;72009;51.392;10.234;2023-08-20T00:36:51;98555.06;;;19.94;100.00
66880;BME280;72009;51.392;10.234;2023-08-20T00:37:12;98549.47;;;19.94;100.00
66880;BME280;72009;51.392;10.234;2023-08-20T00:37:32;98557.84;;;19.94;100.00
66880;BME280;72009;51.392;10.234;2023-08-20T00:37:52;98555.84;;;19.94;100.00
66880;BME280;72009;51.392;10.234;2023-08-20T00:38:13;98552.25;;;19.94;100.00
66880;BME280;72009;51.392;10.234;2023-08-20T00:38:33;98558.63;;;19.94;100.00
66880;BME280;72009;51.392;10.234;2023-08-20T00:38:53;98556.66;;;19.95;100.00
66880;BME280;72009;51.392;10.234;2023-08-20T00:39:13;98553.53;;;19.96;100.00
66880;BME280;72009;51.392;10.234;2023-08-20T00:39:34;98554.31;;;19.97;100.00
66880;BME280;72009;51.392;10.234;2023-08-20T00:39:54;98556.75;;;19.98;100.00
66880;BME280;72009;51.392;10.234;2023-08-20T00:40:15;98551.97;;;19.99;100.00
66880;BME280;72009;51.392;10.234;2023-08-20T00:40:35;98554.41;;;20.00;100.00
66880;BME280;72009;51.392;10.234;2023-08-20T00:40:55;98553.59;;;20.00;100.00
66880;BME280;72009;51.392;10.234;2023-08-20T00:41:15;98555.22;;;20.01;100.00
66880;BME280;72009;51.392;10.234;2023-08-20T00:41:36;98555.22;;;20.01;100.00
66880;BME280;72009;51.392;10.234;2023-08-20T00:41:56;98554.88;;;20.02;100.00
66880;BME280;72009;51.392;10.234;2023-08-20T00:42:16;98555.66;;;20.03;100.00
66880;BME280;72009;51.392;10.234;2023-08-20T00:42:37;98550.50;;;20.05;100.00
66880;BME280;72009;51.392;10.234;2023-08-20T00:42:57;98554.94;;;20.06;100.00
66880;BME280;72009;51.392;10.234;2023-08-20T00:43:17;98550.16;;;20.06;100.00
66880;BME280;72009;51.392;10.234;2023-08-20T00:43:38;98552.94;;;20.06;100.00
66880;BME280;72009;51.392;10.234;2023-08-20T00:43:58;98549.81;;;20.08;100.00
66880;BME280;72009;51.392;10.234;2023-08-20T00:44:18;98543.03;;;20.09;100.00
66880;BME280;72009;51.392;10.234;2023-08-20T00:44:39;98548.63;;;20.09;100.00
66880;BME280;72009;51.392;10.234;2023-08-20T00:44:59;98548.63;;;20.09;100.00
66880;BME280;72009;51.392;10.234;2023-08-20T00:45:19;98548.63;;;20.09;100.00
66880;BME280;72009;51.392;10.234;2023-08-20T00:45:40;98554.22;;;20.09;100.00
66880;BME280;72009;51.392;10.234;2023-08-20T00:46:01;98545.84;;;20.09;100.00
66880;BME280;72009;51.392;10.234;2023-08-20T00:46:22;98552.59;;;20.08;100.00
66880;BME280;72009;51.392;10.234;2023-08-20T00:46:42;98549.44;;;20.10;100.00
66880;BME280;72009;51.392;10.234;2023-08-20T00:47:04;98545.84;;;20.09;100.00
66880;BME280;72009;51.392;10.234;2023-08-20T00:47:25;98549.81;;;20.08;100.00
66880;BME280;72009;51.392;10.234;2023-08-20T00:47:45;98548.63;;;20.09;100.00
66880;BME280;72009;51.392;10.234;2023-08-20T00:48:06;98549.44;;;20.10;100.00
66880;BME280;72009;51.392;10.234;2023-08-20T00:48:27;98553.47;;;20.12;100.00
66880;BME280;72009;51.392;10.234;2023-08-20T00:48:47;98555.09;;;20.13;100.00
66880;BME280;72009;51.392;10.234;2023-08-20T00:49:07;98551.16;;;20.14;100.00
66880;BME280;72009;51.392;10.234;2023-08-20T00:49:29;98548.78;;;20.16;100.00
66880;BME280;72009;51.392;10.234;2023-08-20T00:49:50;98557.16;;;20.16;100.00
66880;BME280;72009;51.392;10.234;2023-08-20T00:50:11;98544.84;;;20.17;100.00
66880;BME280;72009;51.392;10.234;2023-08-20T00:50:32;98548.44;;;20.18;100.00
66880;BME280;72009;51.392;10.234;2023-08-20T00:50:53;98559.97;;;20.16;100.00
66880;BME280;72009;51.392;10.234;2023-08-20T00:51:13;98551.22;;;20.18;100.00
66880;BME280;72009;51.392;10.234;2023-08-20T00:51:35;98558.81;;;20.17;100.00
66880;BME280;72009;51.392;10.234;2023-08-20T00:51:56;98555.19;;;20.17;100.00
66880;BME280;72009;51.392;10.234;2023-08-20T00:52:17;98563.56;;;20.17;100.00
66880;BME280;72009;51.392;10.234;2023-08-20T00:52:37;98565.53;;;20.16;100.00
66880;BME280;72009;51.392;10.234;2023-08-20T00:52:58;98560.31;;;20.15;100.00
66880;BME280;72009;51.392;10.234;2023-08-20T00:53:18;98553.59;;;20.16;100.00
66880;BME280;72009;51.392;10.234;2023-08-20T00:53:39;98560.31;;;20.15;100.00
66880;BME280;72009;51.392;10.234;2023-08-20T00:54:00;98558.69;;;20.14;100.00
66880;BME280;72009;51.392;10.234;2023-08-20T00:54:22;98559.53;;;20.14;100.00
66880;BME280;72009;51.392;10.234;2023-08-20T00:54:44;98557.91;;;20.13;100.00
66880;BME280;72009;51.392;10.234;2023-08-20T00:55:10;98551.53;;;20.13;100.00
66880;BME280;72009;51.392;10.234;2023-08-20T00:55:30;98551.88;;;20.11;100.00
66880;BME280;72009;51.392;10.234;2023-08-20T00:55:51;98551.06;;;20.11;100.00
66880;BME280;72009;51.392;10.234;2023-08-20T00:56:11;98553.84;;;20.11;100.00
66880;BME280;72009;51.392;10.234;2023-08-20T00:56:31;98555.84;;;20.10;100.00
66880;BME280;72009;51.392;10.234;2023-08-20T00:56:52;98558.63;;;20.10;100.00
66880;BME280;72009;51.392;10.234;2023-08-20T00:57:18;98555.03;;;20.10;100.00
66880;BME280;72009;51.392;10.234;2023-08-20T00:57:39;98557.47;;;20.11;100.00
66880;BME280;72009;51.392;10.234;2023-08-20T00:58:00;98558.63;;;20.10;100.00
66880;BME280;72009;51.392;10.234;2023-08-20T00:58:20;98555.84;;;20.10;100.00
66880;BME280;72009;51.392;10.234;2023-08-20T00:58:41;98559.44;;;20.11;100.00
66880;BME280;72009;51.392;10.234;2023-08-20T00:59:05;98557.00;;;20.09;100.00
66880;BME280;72009;51.392;10.234;2023-08-20T00:59:26;98556.19;;;20.09;100.00
66880;BME280;72009;51.392;10.234;2023-08-20T00:59:50;98560.97;;;20.08;100.00
66880;BME280;72009;51.392;10.234;2023-08-20T01:00:11;98558.19;;;20.08;100.00
66880;BME280;72009;51.392;10.234;2023-08-20T01:00:31;98552.16;;;20.06;100.00
66880;BME280;72009;51.392;10.234;2023-08-20T01:00:52;98553.78;;;20.07;100.00
66880;BME280;72009;51.392;10.234;2023-08-20T01:01:12;98557.38;;;20.08;100.00
66880;BME280;72009;51.392;10.234;2023-08-20T01:01:32;98553.78;;;20.07;100.00
66880;BME280;72009;51.392;10.234;2023-08-20T01:01:53;98556.56;;;20.07;100.00
66880;BME280;72009;51.392;10.234;2023-08-20T01:02:13;98568.53;;;20.08;100.00
66880;BME280;72009;51.392;10.234;2023-08-20T01:02:33;98563.31;;;20.06;100.00
66880;BME280;72009;51.392;10.234;2023-08-20T01:02:53;98558.53;;;20.06;100.00
66880;BME280;72009;51.392;10.234;2023-08-20T01:03:14;98557.72;;;20.06;100.00
66880;BME280;72009;51.392;10.234;2023-08-20T01:03:34;98558.88;;;20.05;100.00
66880;BME280;72009;51.392;10.234;2023-08-20T01:03:54;98556.94;;;20.05;100.00
66880;BME280;72009;51.392;10.234;2023-08-20T01:04:15;98556.94;;;20.05;100.00
66880;BME280;72009;51.392;10.234;2023-08-20T01:04:35;98568.09;;;20.05;100.00
66880;BME280;72009;51.392;10.234;2023-08-20T01:04:56;98554.94;;;20.06;100.00
66880;BME280;72009;51.392;10.234;2023-08-20T01:05:16;98562.50;;;20.05;100.00
66880;BME280;72009;51.392;10.234;2023-08-20T01:05:47;98561.69;;;20.05;100.00
66880;BME280;72009;51.392;10.234;2023-08-20T01:07:04;98559.72;;;20.05;100.00
66880;BME280;72009;51.392;10.234;2023-08-20T01:08:40;98559.34;;;20.07;100.00
66880;BME280;72009;51.392;10.234;2023-08-20T01:09:06;98554.56;;;20.08;100.00
66880;BME280;72009;51.392;10.234;2023-08-20T01:11:00;98556.94;;;20.05;100.00
66880;BME280;72009;51.392;10.234;2023-08-20T01:11:29;98556.94;;;20.05;100.00
66880;BME280;72009;51.392;10.234;2023-08-20T01:11:56;98556.09;;;20.05;100.00
66880;BME280;72009;51.392;10.234;2023-08-20T01:12:19;98557.28;;;20.04;100.00
66880;BME280;72009;51.392;10.234;2023-08-20T01:12:41;98550.88;;;20.03;100.00
66880;BME280;72009;51.392;10.234;2023-08-20T01:13:01;98559.25;;;20.03;100.00
66880;BME280;72009;51.392;10.234;2023-08-20T01:13:22;98557.66;;;20.02;100.00
66880;BME280;72009;51.392;10.234;2023-08-20T01:13:43;98558.44;;;20.03;100.00
66880;BME280;72009;51.392;10.234;2023-08-20T01:14:14;98560.44;;;20.02;100.00
66880;BME280;72009;51.392;10.234;2023-08-20T01:14:35;98560.44;;;20.02;100.00
66880;BME280;72009;51.392;10.234;2023-08-20T01:14:55;98551.25;;;20.02;100.00
66880;BME280;72009;51.392;10.234;2023-08-20T01:15:15;98553.22;;;20.01;100.00
66880;BME280;72009;51.392;10.234;2023-08-20T01:15:35;98556.81;;;20.02;100.00
66880;BME280;72009;51.392;10.234;2023-08-20T01:15:56;98556.47;;;20.03;100.00
66880;BME280;72009;51.392;10.234;2023-08-20T01:16:16;98562.41;;;20.02;100.00
66880;BME280;72009;51.392;10.234;2023-08-20T01:16:36;98558.81;;;20.01;100.00
66880;BME280;72009;51.392;10.234;2023-08-20T01:16:57;98561.25;;;20.03;100.00
66880;BME280;72009;51.392;10.234;2023-08-20T01:17:17;98557.66;;;20.02;100.00
66880;BME280;72009;51.392;10.234;2023-08-20T01:17:37;98556.03;;;20.01;100.00
66880;BME280;72009;51.392;10.234;2023-08-20T01:17:58;98559.19;;;20.00;100.00
66880;BME280;72009;51.392;10.234;2023-08-20T01:18:18;98554.75;;;19.99;100.00
66880;BME280;72009;51.392;10.234;2023-08-20T01:18:38;98557.56;;;19.99;100.00
66880;BME280;72009;51.392;10.234;2023-08-20T01:18:59;98553.97;;;19.98;100.00
66880;BME280;72009;51.392;10.234;2023-08-20T01:19:21;98561.53;;;19.98;100.00
66880;BME280;72009;51.392;10.234;2023-08-20T01:19:42;98556.75;;;19.98;100.00
66880;BME280;72009;51.392;10.234;2023-08-20T01:20:03;98560.72;;;19.97;100.00
66880;BME280;72009;51.392;10.234;2023-08-20T01:20:30;98561.06;;;19.96;100.00
66880;BME280;72009;51.392;10.234;2023-08-20T01:20:56;98560.28;;;19.95;100.00
66880;BME280;72009;51.392;10.234;2023-08-20T01:21:39;98560.28;;;19.95;100.00
66880;BME280;72009;51.392;10.234;2023-08-20T01:24:51;98562.16;;;19.91;100.00
66880;BME280;72009;51.392;10.234;2023-08-20T01:26:25;98563.69;;;19.88;100.00
66880;BME280;72009;51.392;10.234;2023-08-20T01:28:41;98562.44;;;19.86;100.00
66880;BME280;72009;51.392;10.234;2023-08-20T01:29:04;98558.81;;;19.85;100.00
66880;BME280;72009;51.392;10.234;2023-08-20T01:29:26;98568.03;;;19.86;100.00
66880;BME280;72009;51.392;10.234;2023-08-20T01:29:48;98563.25;;;19.86;100.00
66880;BME280;72009;51.392;10.234;2023-08-20T01:30:09;98566.03;;;19.86;100.00
66880;BME280;72009;51.392;10.234;2023-08-20T01:30:31;98565.22;;;19.86;100.00
66880;BME280;72009;51.392;10.234;2023-08-20T01:30:54;98569.63;;;19.87;100.00
66880;BME280;72009;51.392;10.234;2023-08-20T01:31:15;98560.44;;;19.86;100.00
66880;BME280;72009;51.392;10.234;2023-08-20T01:31:36;98566.03;;;19.86;100.00
66880;BME280;72009;51.392;10.234;2023-08-20T01:31:57;98567.66;;;19.87;100.00
66880;BME280;72009;51.392;10.234;2023-08-20T01:32:20;98573.25;;;19.87;100.00
66880;BME280;72009;51.392;10.234;2023-08-20T01:32:41;98574.84;;;19.88;100.00
66880;BME280;72009;51.392;10.234;2023-08-20T01:33:02;98564.03;;;19.87;100.00
66880;BME280;72009;51.392;10.234;2023-08-20T01:33:23;98569.25;;;19.88;100.00
66880;BME280;72009;51.392;10.234;2023-08-20T01:33:44;98565.66;;;19.88;100.00
66880;BME280;72009;51.392;10.234;2023-08-20T01:34:04;98570.47;;;19.87;100.00
66880;BME280;72009;51.392;10.234;2023-08-20T01:34:25;98578.81;;;19.87;100.00
66880;BME280;72009;51.392;10.234;2023-08-20T01:34:45;98572.41;;;19.87;100.00
66880;BME280;72009;51.392;10.234;2023-08-20T01:35:06;98575.22;;;19.87;100.00
66880;BME280;72009;51.392;10.234;2023-08-20T01:35:28;98573.25;;;19.87;100.00
66880;BME280;72009;51.392;10.234;2023-08-20T01:35:49;98572.41;;;19.87;100.00
66880;BME280;72009;51.392;10.234;2023-08-20T01:36:10;98581.16;;;19.85;100.00
66880;BME280;72009;51.392;10.234;2023-08-20T01:36:30;98575.56;;;19.85;100.00
66880;BME280;72009;51.392;10.234;2023-08-20T01:36:50;98578.34;;;19.85;100.00
66880;BME280;72009;51.392;10.234;2023-08-20T01:37:11;98576.41;;;19.86;100.00
66880;BME280;72009;51.392;10.234;2023-08-20T01:37:31;98571.97;;;19.85;100.00
66880;BME280;72009;51.392;10.234;2023-08-20T01:37:52;98566.41;;;19.85;100.00
66880;BME280;72009;51.392;10.234;2023-08-20T01:38:12;98573.59;;;19.86;100.00
66880;BME280;72009;51.392;10.234;2023-08-20T01:38:32;98574.41;;;19.86;100.00
66880;BME280;72009;51.392;10.234;2023-08-20T01:38:52;98576.03;;;19.87;100.00
66880;BME280;72009;51.392;10.234;2023-08-20T01:39:13;98574.41;;;19.86;100.00
66880;BME280;72009;51.392;10.234;2023-08-20T01:39:33;98573.25;;;19.87;100.00
66880;BME280;72009;51.392;10.234;2023-08-20T01:39:53;98576.03;;;19.87;100.00
66880;BME280;72009;51.392;10.234;2023-08-20T01:40:13;98567.66;;;19.87;100.00
66880;BME280;72009;51.392;10.234;2023-08-20T01:40:34;98570.09;;;19.89;100.00
66880;BME280;72009;51.392;10.234;2023-08-20T01:40:54;98581.25;;;19.89;100.00
66880;BME280;72009;51.392;10.234;2023-08-20T01:41:14;98573.31;;;19.91;100.00
66880;BME280;72009;51.392;10.234;2023-08-20T01:41:35;98574.94;;;19.92;100.00
66880;BME280;72009;51.392;10.234;2023-08-20T01:41:55;98575.75;;;19.93;100.00
66880;BME280;72009;51.392;10.234;2023-08-20T01:42:15;98572.97;;;19.93;100.00
66880;BME280;72009;51.392;10.234;2023-08-20T01:42:37;98575.38;;;19.94;100.00
66880;BME280;72009;51.392;10.234;2023-08-20T01:42:57;98577.38;;;19.94;100.00
66880;BME280;72009;51.392;10.234;2023-08-20T01:43:17;98580.97;;;19.94;100.00
66880;BME280;72009;51.392;10.234;2023-08-20T01:43:38;98577.03;;;19.95;100.00
66880;BME280;72009;51.392;10.234;2023-08-20T01:43:58;98583.41;;;19.96;100.00
66880;BME280;72009;51.392;10.234;2023-08-20T01:44:18;98584.22;;;19.96;100.00
66880;BME280;72009;51.392;10.234;2023-08-20T01:44:39;98573.41;;;19.95;100.00
66880;BME280;72009;51.392;10.234;2023-08-20T01:44:59;98579.81;;;19.95;100.00
66880;BME280;72009;51.392;10.234;2023-08-20T01:45:19;98580.59;;;19.96;100.00
66880;BME280;72009;51.392;10.234;2023-08-20T01:45:39;98575.84;;;19.96;100.00
66880;BME280;72009;51.392;10.234;2023-08-20T01:46:00;98579.44;;;19.97;100.00
66880;BME280;72009;51.392;10.234;2023-08-20T01:46:20;98579.44;;;19.97;100.00
66880;BME280;72009;51.392;10.234;2023-08-20T01:46:40;98573.88;;;19.97;100.00
66880;BME280;72009;51.392;10.234;2023-08-20T01:47:01;98579.44;;;19.97;100.00
66880;BME280;72009;51.392;10.234;2023-08-20T01:47:21;98581.44;;;19.96;100.00
66880;BME280;72009;51.392;10.234;2023-08-20T01:47:41;98582.25;;;19.97;100.00
66880;BME280;72009;51.392;10.234;2023-08-20T01:48:02;98580.59;;;19.96;100.00
66880;BME280;72009;51.392;10.234;2023-08-20T01:48:22;98573.88;;;19.97;100.00
66880;BME280;72009;51.392;10.234;2023-08-20T01:48:42;98580.25;;;19.97;100.00
66880;BME280;72009;51.392;10.234;2023-08-20T01:49:03;98586.66;;;19.98;100.00
66880;BME280;72009;51.392;10.234;2023-08-20T01:49:23;98583.03;;;19.97;100.00
66880;BME280;72009;51.392;10.234;2023-08-20T01:49:43;98578.28;;;19.98;100.00
66880;BME280;72009;51.392;10.234;2023-08-20T01:50:04;98586.66;;;19.98;100.00
66880;BME280;72009;51.392;10.234;2023-08-20T01:50:24;98584.66;;;19.98;100.00
66880;BME280;72009;51.392;10.234;2023-08-20T01:50:45;98589.44;;;19.98;100.00
66880;BME280;72009;51.392;10.234;2023-08-20T01:51:05;98578.28;;;19.98;100.00
66880;BME280;72009;51.392;10.234;2023-08-20T01:51:25;98581.06;;;19.98;100.00
66880;BME280;72009;51.392;10.234;2023-08-20T01:51:45;98581.06;;;19.98;100.00
66880;BME280;72009;51.392;10.234;2023-08-20T01:52:06;98581.06;;;19.98;100.00
66880;BME280;72009;51.392;10.234;2023-08-20T01:52:26;98580.25;;;19.97;100.00
66880;BME280;72009;51.392;10.234;2023-08-20T01:52:46;98582.25;;;19.97;100.00
66880;BME280;72009;51.392;10.234;2023-08-20T01:53:07;98583.03;;;19.97;100.00
66880;BME280;72009;51.392;10.234;2023-08-20T01:53:27;98586.66;;;19.98;100.00
66880;BME280;72009;51.392;10.234;2023-08-20T01:53:47;98579.09;;;19.98;100.00
66880;BME280;72009;51.392;10.234;2023-08-20T01:54:07;98588.25;;;19.99;100.00
66880;BME280;72009;51.392;10.234;2023-08-20T01:54:28;98581.06;;;19.98;100.00
66880;BME280;72009;51.392;10.234;2023-08-20T01:54:48;98579.09;;;19.98;100.00
66880;BME280;72009;51.392;10.234;2023-08-20T01:55:11;98588.63;;;19.97;100.00
66880;BME280;72009;51.392;10.234;2023-08-20T01:55:31;98579.44;;;19.97;100.00
66880;BME280;72009;51.392;10.234;2023-08-20T01:55:51;98586.66;;;19.98;100.00
66880;BME280;72009;51.392;10.234;2023-08-20T01:56:12;98579.09;;;19.98;100.00
66880;BME280;72009;51.392;10.234;2023-08-20T01:56:32;98580.25;;;19.97;100.00
66880;BME280;72009;51.392;10.234;2023-08-20T01:56:53;98582.69;;;19.99;100.00
66880;BME280;72009;51.392;10.234;2023-08-20T01:57:13;98584.31;;;20.00;100.00
66880;BME280;72009;51.392;10.234;2023-08-20T01:57:33;98581.16;;;20.01;100.00
66880;BME280;72009;51.392;10.234;2023-08-20T01:57:54;98582.78;;;20.02;100.00
66880;BME280;72009;51.392;10.234;2023-08-20T01:58:14;98579.63;;;20.04;100.00